createdAt,value
2024-04-12T00:02:30.633Z,100.00
2024-04-12T00:05:04.524Z,100.00
2024-04-12T00:07:36.569Z,100.00
2024-04-12T00:10:07.583Z,100.00
2024-04-12T00:12:37.023Z,100.00
2024-04-12T00:15:18.838Z,100.00
2024-04-12T00:17:56.562Z,100.00
2024-04-12T00:20:30.597Z,100.00
2024-04-12T00:23:03.663Z,100.00
2024-04-12T00:25:33.766Z,100.00
2024-04-12T00:28:06.434Z,100.00
2024-04-12T00:30:39.288Z,100.00
2024-04-12T00:33:12.508Z,100.00
2024-04-12T00:35:47.619Z,100.00
2024-04-12T00:38:18.063Z,100.00
2024-04-12T00:40:49.202Z,100.00
2024-04-12T00:43:19.214Z,100.00
2024-04-12T00:45:50.350Z,100.00
2024-04-12T00:48:22.794Z,100.00
2024-04-12T00:50:56.031Z,100.00
2024-04-12T00:53:29.878Z,100.00
2024-04-12T00:56:04.775Z,100.00
2024-04-12T00:58:34.777Z,100.00
2024-04-12T01:01:16.968Z,100.00
2024-04-12T01:03:48.634Z,100.00
2024-04-12T01:06:25.566Z,100.00
2024-04-12T01:08:59.416Z,100.00
2024-04-12T01:11:29.124Z,100.00
2024-04-12T01:13:58.956Z,100.00
2024-04-12T01:16:28.639Z,100.00
2024-04-12T01:18:58.466Z,100.00
2024-04-12T01:21:33.131Z,100.00
2024-04-12T01:24:07.496Z,100.00
2024-04-12T01:26:40.426Z,100.00
2024-04-12T01:29:10.913Z,100.00
2024-04-12T01:31:40.639Z,100.00
2024-04-12T01:34:14.684Z,100.00
2024-04-12T01:36:44.788Z,100.00
2024-04-12T01:39:14.520Z,100.00
2024-04-12T01:41:46.728Z,100.00
2024-04-12T01:44:24.917Z,100.00
2024-04-12T01:46:54.387Z,100.00
2024-04-12T01:49:24.001Z,100.00
2024-04-12T01:51:57.224Z,100.00
2024-04-12T01:54:26.665Z,100.00
2024-04-12T01:56:58.807Z,100.00
2024-04-12T01:59:28.315Z,100.00
2024-04-12T02:01:57.746Z,100.00
2024-04-12T02:04:31.546Z,100.00
2024-04-12T02:07:02.119Z,100.00
2024-04-12T02:09:31.788Z,100.00
2024-04-12T02:12:04.409Z,100.00
2024-04-12T02:14:33.964Z,100.00
2024-04-12T02:17:04.129Z,100.00
2024-04-12T02:19:37.098Z,100.00
2024-04-12T02:22:06.674Z,100.00
2024-04-12T02:24:36.153Z,100.00
2024-04-12T02:27:08.399Z,100.00
2024-04-12T02:29:40.422Z,100.00
2024-04-12T02:32:10.009Z,100.00
2024-04-12T02:34:39.690Z,100.00
2024-04-12T02:37:09.369Z,100.00
2024-04-12T02:39:42.154Z,100.00
2024-04-12T02:42:19.258Z,100.00
2024-04-12T02:44:48.787Z,100.00
2024-04-12T02:47:18.546Z,100.00
2024-04-12T02:49:48.195Z,100.00
2024-04-12T02:52:19.010Z,100.00
2024-04-12T02:54:52.781Z,100.00
2024-04-12T02:57:24.907Z,100.00
2024-04-12T02:59:54.668Z,100.00
2024-04-12T03:02:24.329Z,100.00
2024-04-12T03:04:54.142Z,100.00
2024-04-12T03:07:24.879Z,100.00
2024-04-12T03:09:54.776Z,100.00
2024-04-12T03:12:28.106Z,100.00
2024-04-12T03:14:57.739Z,100.00
2024-04-12T03:17:27.252Z,100.00
2024-04-12T03:19:56.866Z,100.00
2024-04-12T03:22:29.293Z,100.00
2024-04-12T03:24:59.155Z,100.00
2024-04-12T03:27:31.311Z,100.00
2024-04-12T03:30:00.938Z,100.00
2024-04-12T03:32:33.925Z,100.00
2024-04-12T03:35:09.769Z,100.00
2024-04-12T03:37:39.478Z,100.00
2024-04-12T03:40:18.213Z,100.00
2024-04-12T03:42:50.847Z,100.00
2024-04-12T03:45:20.402Z,100.00
2024-04-12T03:47:52.462Z,100.00
2024-04-12T03:50:22.264Z,100.00
2024-04-12T03:52:51.873Z,100.00
2024-04-12T03:55:21.423Z,100.00
2024-04-12T03:57:53.723Z,100.00
2024-04-12T04:00:24.193Z,100.00
2024-04-12T04:02:53.708Z,100.00
2024-04-12T04:05:27.565Z,100.00
2024-04-12T04:07:57.891Z,100.00
2024-04-12T04:10:27.632Z,100.00
2024-04-12T04:13:04.666Z,100.00
2024-04-12T04:15:34.920Z,100.00
2024-04-12T04:18:11.879Z,100.00
2024-04-12T04:20:41.804Z,100.00
2024-04-12T04:23:11.549Z,100.00
2024-04-12T04:25:41.204Z,100.00
2024-04-12T04:28:13.384Z,100.00
2024-04-12T04:30:42.883Z,100.00
2024-04-12T04:33:14.239Z,100.00
2024-04-12T04:35:46.320Z,100.00
2024-04-12T04:38:17.961Z,100.00
2024-04-12T04:40:47.736Z,100.00
2024-04-12T04:43:24.427Z,100.00
2024-04-12T04:45:53.984Z,100.00
2024-04-12T04:48:23.937Z,100.00
2024-04-12T04:50:53.661Z,100.00
2024-04-12T04:53:23.174Z,100.00
2024-04-12T04:55:56.944Z,100.00
2024-04-12T04:58:29.900Z,100.00
2024-04-12T05:00:59.549Z,100.00
2024-04-12T05:03:29.307Z,100.00
2024-04-12T05:05:58.878Z,100.00
2024-04-12T05:08:29.023Z,100.00
2024-04-12T05:10:58.553Z,100.00
2024-04-12T05:13:31.507Z,100.00
2024-04-12T05:16:01.056Z,100.00
2024-04-12T05:18:30.711Z,100.00
2024-04-12T05:21:01.265Z,100.00
2024-04-12T05:23:30.970Z,100.00
2024-04-12T05:26:00.637Z,100.00
2024-04-12T05:28:32.920Z,100.00
2024-04-12T05:31:03.020Z,100.00
2024-04-12T05:33:34.458Z,100.00
2024-04-12T05:36:11.562Z,100.00
2024-04-12T05:38:42.404Z,100.00
2024-04-12T05:41:14.437Z,100.00
2024-04-12T05:43:46.607Z,100.00
2024-04-12T05:46:16.249Z,100.00
2024-04-12T05:48:45.763Z,100.00
2024-04-12T05:51:15.330Z,100.00
2024-04-12T05:53:44.884Z,100.00
2024-04-12T05:56:26.813Z,100.00
2024-04-12T05:58:59.136Z,100.00
2024-04-12T06:01:34.062Z,100.00
2024-04-12T06:04:05.529Z,100.00
2024-04-12T06:06:35.319Z,100.00
2024-04-12T06:09:10.548Z,100.00
2024-04-12T06:11:43.682Z,100.00
2024-04-12T06:14:16.282Z,100.00
2024-04-12T06:16:47.457Z,100.00
2024-04-12T06:19:17.284Z,100.00
2024-04-12T06:21:47.206Z,100.00
2024-04-12T06:24:18.250Z,100.00
2024-04-12T06:26:50.590Z,100.00
2024-04-12T06:29:32.544Z,100.00
2024-04-12T06:32:08.989Z,100.00
2024-04-12T06:34:39.713Z,100.00
2024-04-12T06:37:10.127Z,100.00
2024-04-12T06:39:41.956Z,100.00
2024-04-12T06:42:11.688Z,100.00
2024-04-12T06:44:50.231Z,100.00
2024-04-12T06:47:20.892Z,100.00
2024-04-12T06:49:51.694Z,100.00
2024-04-12T06:52:24.325Z,100.00
2024-04-12T06:54:54.270Z,100.00
2024-04-12T06:57:24.588Z,100.00
2024-04-12T07:00:02.416Z,100.00
2024-04-12T07:02:35.310Z,100.00
2024-04-12T07:05:07.250Z,100.00
2024-04-12T07:07:38.503Z,100.00
2024-04-12T07:10:11.657Z,100.00
2024-04-12T07:12:44.607Z,100.00
2024-04-12T07:15:22.613Z,100.00
2024-04-12T07:17:52.362Z,100.00
2024-04-12T07:20:29.322Z,100.00
2024-04-12T07:22:59.918Z,100.00
2024-04-12T07:25:30.319Z,100.00
2024-04-12T07:28:01.757Z,100.00
2024-04-12T07:30:33.956Z,100.00
2024-04-12T07:33:06.695Z,100.00
2024-04-12T07:35:36.738Z,100.00
2024-04-12T07:38:09.242Z,100.00
2024-04-12T07:40:41.446Z,100.00
2024-04-12T07:43:16.479Z,100.00
2024-04-12T07:45:51.185Z,100.00
2024-04-12T07:48:22.065Z,100.00
2024-04-12T07:50:55.574Z,99.89
2024-04-12T07:53:25.330Z,99.93
2024-04-12T07:55:59.808Z,98.13
2024-04-12T07:58:35.872Z,97.82
2024-04-12T08:01:19.391Z,92.30
2024-04-12T08:03:52.633Z,91.07
2024-04-12T08:06:43.168Z,86.62
2024-04-12T08:09:31.691Z,87.67
2024-04-12T08:12:06.412Z,85.16
2024-04-12T08:14:35.912Z,82.52
2024-04-12T08:17:15.822Z,81.29
2024-04-12T08:19:48.394Z,79.36
2024-04-12T08:22:20.793Z,79.95
2024-04-12T08:24:51.028Z,76.40
2024-04-12T08:27:21.656Z,74.21
2024-04-12T08:29:51.358Z,76.42
2024-04-12T08:32:30.317Z,72.06
2024-04-12T08:35:01.043Z,71.42
2024-04-12T08:37:38.236Z,69.58
2024-04-12T08:40:12.868Z,71.16
2024-04-12T08:42:42.921Z,71.85
2024-04-12T08:45:19.374Z,66.56
2024-04-12T08:47:56.592Z,66.10
2024-04-12T08:50:33.053Z,65.31
2024-04-12T08:53:13.847Z,67.62
2024-04-12T08:55:47.202Z,61.59
2024-04-12T08:58:25.472Z,59.38
2024-04-12T09:00:56.874Z,60.64
2024-04-12T09:03:36.790Z,58.54
2024-04-12T09:06:06.768Z,56.54
2024-04-12T09:08:42.646Z,56.11
2024-04-12T09:11:12.573Z,54.96
2024-04-12T09:13:48.213Z,53.90
2024-04-12T09:16:21.230Z,52.69
2024-04-12T09:18:53.621Z,53.58
2024-04-12T09:21:37.341Z,53.63
2024-04-12T09:24:16.561Z,51.27
2024-04-12T09:26:59.747Z,51.65
2024-04-12T09:29:29.407Z,51.37
2024-04-12T09:32:17.945Z,51.19
2024-04-12T09:34:58.086Z,48.54
2024-04-12T09:37:39.881Z,47.78
2024-04-12T09:40:12.860Z,48.57
2024-04-12T09:42:56.705Z,48.42
2024-04-12T09:45:46.818Z,48.24
2024-04-12T09:48:38.210Z,47.22
2024-04-12T09:51:29.288Z,48.75
2024-04-12T09:54:17.824Z,46.58
2024-04-12T09:57:12.814Z,46.69
2024-04-12T10:00:06.022Z,44.79
2024-04-12T10:03:07.096Z,45.53
2024-04-12T10:05:55.719Z,44.54
2024-04-12T10:08:47.548Z,47.19
2024-04-12T10:11:35.786Z,42.96
2024-04-12T10:14:24.339Z,45.42
2024-04-12T10:17:16.018Z,41.74
2024-04-12T10:20:14.890Z,39.68
2024-04-12T10:23:03.129Z,38.53
2024-04-12T10:25:58.074Z,37.77
2024-04-12T10:28:55.834Z,37.86
2024-04-12T10:31:44.938Z,38.64
2024-04-12T10:34:35.829Z,36.95
2024-04-12T10:37:23.991Z,36.56
2024-04-12T10:39:57.190Z,37.06
2024-04-12T10:42:32.377Z,39.21
2024-04-12T10:45:11.044Z,38.47
2024-04-12T10:47:46.079Z,36.14
2024-04-12T10:50:16.660Z,34.80
2024-04-12T10:52:47.162Z,35.08
2024-04-12T10:55:20.793Z,35.88
2024-04-12T10:57:55.422Z,36.39
2024-04-12T11:00:29.665Z,35.70
2024-04-12T11:03:08.607Z,36.47
2024-04-12T11:05:39.283Z,34.48
2024-04-12T11:08:16.926Z,38.92
2024-04-12T11:10:56.575Z,35.74
2024-04-12T11:13:36.754Z,35.04
2024-04-12T11:16:25.964Z,35.54
2024-04-12T11:19:14.208Z,36.84
2024-04-12T11:22:02.635Z,35.62
2024-04-12T11:24:51.034Z,35.44
2024-04-12T11:27:39.284Z,37.71
2024-04-12T11:30:32.503Z,36.11
2024-04-12T11:33:06.575Z,35.78
2024-04-12T11:35:36.556Z,35.96
2024-04-12T11:38:14.526Z,34.89
2024-04-12T11:40:46.903Z,35.37
2024-04-12T11:43:16.499Z,34.98
2024-04-12T11:45:50.217Z,34.99
2024-04-12T11:48:19.937Z,38.61
2024-04-12T11:50:51.014Z,38.13
2024-04-12T11:53:21.661Z,38.08
2024-04-12T11:55:51.199Z,37.31
2024-04-12T11:58:23.816Z,35.97
2024-04-12T12:00:56.200Z,41.21
2024-04-12T12:03:26.954Z,36.39
2024-04-12T12:05:58.613Z,37.42
2024-04-12T12:08:38.469Z,36.96
2024-04-12T12:11:10.005Z,36.72
2024-04-12T12:13:43.754Z,38.35
2024-04-12T12:16:16.658Z,38.03
2024-04-12T12:18:46.770Z,33.48
2024-04-12T12:21:19.130Z,35.96
2024-04-12T12:23:48.759Z,35.29
2024-04-12T12:26:20.286Z,37.81
2024-04-12T12:28:51.658Z,35.30
2024-04-12T12:31:24.094Z,35.01
2024-04-12T12:33:54.324Z,38.13
2024-04-12T12:36:25.161Z,35.75
2024-04-12T12:38:55.718Z,36.66
2024-04-12T12:41:25.315Z,37.72
2024-04-12T12:43:54.979Z,36.58
2024-04-12T12:46:27.800Z,37.23
2024-04-12T12:48:57.522Z,36.69
2024-04-12T12:51:30.643Z,36.30
2024-04-12T12:54:01.683Z,34.57
2024-04-12T12:56:32.576Z,34.64
2024-04-12T12:59:02.174Z,35.48
2024-04-12T13:01:37.419Z,33.98
2024-04-12T13:04:08.389Z,32.06
2024-04-12T13:06:38.627Z,32.08
2024-04-12T13:09:08.463Z,35.23
2024-04-12T13:11:38.000Z,31.29
2024-04-12T13:14:11.837Z,30.19
2024-04-12T13:16:44.916Z,31.64
2024-04-12T13:19:17.591Z,31.79
2024-04-12T13:21:47.830Z,37.57
2024-04-12T13:24:17.950Z,30.41
2024-04-12T13:26:52.000Z,30.17
2024-04-12T13:29:23.247Z,28.54
2024-04-12T13:31:55.437Z,28.70
2024-04-12T13:34:26.062Z,29.86
2024-04-12T13:36:59.507Z,28.49
2024-04-12T13:39:36.041Z,28.69
2024-04-12T13:42:12.841Z,28.77
2024-04-12T13:45:01.342Z,29.34
2024-04-12T13:47:52.322Z,26.55
2024-04-12T13:50:40.566Z,29.58
2024-04-12T13:53:11.209Z,30.47
2024-04-12T13:55:43.494Z,30.71
2024-04-12T13:58:13.720Z,28.15
2024-04-12T14:00:50.683Z,29.20
2024-04-12T14:03:25.407Z,27.93
2024-04-12T14:05:58.282Z,28.45
2024-04-12T14:08:30.295Z,27.94
2024-04-12T14:11:00.669Z,23.57
2024-04-12T14:13:30.381Z,26.47
2024-04-12T14:16:00.157Z,25.50
2024-04-12T14:18:32.506Z,25.88
2024-04-12T14:21:04.304Z,26.68
2024-04-12T14:23:33.890Z,21.19
2024-04-12T14:26:05.681Z,22.72
2024-04-12T14:28:35.184Z,21.95
2024-04-12T14:31:05.213Z,24.54
2024-04-12T14:33:40.068Z,22.12
2024-04-12T14:36:10.027Z,24.73
2024-04-12T14:38:41.688Z,27.64
2024-04-12T14:41:12.512Z,25.36
2024-04-12T14:43:42.032Z,26.35
2024-04-12T14:46:12.071Z,26.14
2024-04-12T14:48:45.741Z,25.75
2024-04-12T14:51:15.883Z,27.12
2024-04-12T14:53:45.434Z,24.30
2024-04-12T14:56:18.107Z,27.14
2024-04-12T14:58:48.401Z,28.29
2024-04-12T15:01:18.234Z,30.91
2024-04-12T15:04:09.500Z,29.96
2024-04-12T15:06:57.741Z,29.02
2024-04-12T15:09:45.887Z,31.93
2024-04-12T15:12:34.163Z,32.59
2024-04-12T15:15:23.063Z,32.03
2024-04-12T15:18:11.706Z,37.20
2024-04-12T15:21:02.741Z,31.93
2024-04-12T15:23:52.143Z,32.34
2024-04-12T15:26:39.962Z,30.84
2024-04-12T15:29:28.273Z,38.86
2024-04-12T15:32:16.544Z,33.07
2024-04-12T15:35:04.593Z,30.54
2024-04-12T15:37:55.909Z,32.79
2024-04-12T15:40:44.068Z,33.40
2024-04-12T15:43:32.427Z,34.16
2024-04-12T15:46:20.430Z,32.22
2024-04-12T15:48:50.433Z,32.13
2024-04-12T15:51:27.745Z,32.73
2024-04-12T15:54:00.710Z,32.65
2024-04-12T15:56:30.428Z,35.52
2024-04-12T15:59:18.474Z,37.27
2024-04-12T16:02:06.542Z,33.75
2024-04-12T16:04:54.780Z,33.50
2024-04-12T16:07:43.170Z,33.62
2024-04-12T16:10:34.088Z,33.98
2024-04-12T16:13:04.585Z,33.25
2024-04-12T16:15:34.525Z,33.80
2024-04-12T16:18:04.811Z,33.94
2024-04-12T16:20:35.435Z,32.60
2024-04-12T16:23:05.031Z,35.74
2024-04-12T16:25:44.018Z,35.36
2024-04-12T16:28:20.394Z,36.18
2024-04-12T16:30:49.945Z,34.39
2024-04-12T16:33:19.647Z,35.27
2024-04-12T16:35:49.351Z,37.64
2024-04-12T16:38:19.464Z,36.25
2024-04-12T16:40:51.612Z,36.64
2024-04-12T16:43:21.098Z,36.17
2024-04-12T16:45:50.667Z,35.87
2024-04-12T16:48:20.233Z,37.39
2024-04-12T16:50:49.856Z,35.96
2024-04-12T16:53:19.281Z,36.15
2024-04-12T16:55:54.339Z,35.82
2024-04-12T16:58:27.228Z,36.05
2024-04-12T17:00:56.725Z,37.84
2024-04-12T17:03:27.729Z,37.49
2024-04-12T17:05:57.427Z,36.29
2024-04-12T17:08:26.989Z,37.06
2024-04-12T17:10:59.310Z,37.59
2024-04-12T17:13:28.947Z,38.66
2024-04-12T17:15:59.292Z,38.88
2024-04-12T17:18:32.358Z,39.58
2024-04-12T17:21:04.777Z,39.80
2024-04-12T17:23:34.466Z,39.78
2024-04-12T17:26:09.424Z,41.26
2024-04-12T17:28:39.743Z,42.44
2024-04-12T17:31:09.460Z,41.87
2024-04-12T17:33:39.019Z,44.45
2024-04-12T17:36:10.985Z,42.95
2024-04-12T17:38:40.678Z,44.78
2024-04-12T17:41:12.875Z,45.25
2024-04-12T17:43:42.379Z,46.08
2024-04-12T17:46:12.018Z,48.15
2024-04-12T17:48:41.882Z,46.53
2024-04-12T17:51:11.603Z,48.88
2024-04-12T17:53:41.896Z,46.76
2024-04-12T17:56:14.984Z,48.29
2024-04-12T17:58:44.462Z,48.70
2024-04-12T18:01:14.043Z,50.24
2024-04-12T18:03:44.555Z,50.25
2024-04-12T18:06:16.158Z,49.82
2024-04-12T18:08:45.675Z,51.26
2024-04-12T18:11:17.932Z,53.52
2024-04-12T18:13:48.900Z,52.42
2024-04-12T18:16:21.147Z,53.81
2024-04-12T18:18:52.048Z,54.28
2024-04-12T18:21:22.636Z,55.87
2024-04-12T18:23:52.261Z,56.26
2024-04-12T18:26:24.531Z,56.52
2024-04-12T18:28:55.340Z,56.77
2024-04-12T18:31:25.029Z,57.47
2024-04-12T18:33:54.954Z,57.44
2024-04-12T18:36:28.158Z,58.80
2024-04-12T18:39:16.475Z,59.66
2024-04-12T18:42:07.849Z,61.44
2024-04-12T18:44:56.421Z,64.19
2024-04-12T18:47:26.672Z,65.20
2024-04-12T18:49:56.254Z,66.73
2024-04-12T18:52:26.376Z,68.02
2024-04-12T18:54:56.892Z,68.75
2024-04-12T18:57:29.772Z,68.31
2024-04-12T18:59:59.265Z,69.60
2024-04-12T19:02:28.833Z,68.62
2024-04-12T19:04:59.571Z,69.38
2024-04-12T19:07:29.830Z,70.58
2024-04-12T19:09:59.444Z,71.09
2024-04-12T19:12:31.977Z,73.23
2024-04-12T19:15:03.671Z,73.47
2024-04-12T19:17:34.320Z,73.97
2024-04-12T19:20:04.178Z,73.97
2024-04-12T19:22:33.655Z,74.04
2024-04-12T19:25:04.710Z,76.63
2024-04-12T19:27:36.850Z,77.28
2024-04-12T19:30:10.596Z,78.06
2024-04-12T19:32:40.496Z,79.72
2024-04-12T19:35:10.036Z,80.47
2024-04-12T19:37:42.908Z,80.61
2024-04-12T19:40:12.548Z,80.89
2024-04-12T19:42:45.467Z,81.36
2024-04-12T19:45:15.149Z,81.92
2024-04-12T19:47:44.681Z,82.72
2024-04-12T19:50:14.258Z,84.14
2024-04-12T19:52:51.036Z,86.43
2024-04-12T19:55:26.451Z,87.79
2024-04-12T19:57:59.569Z,86.85
2024-04-12T20:00:29.218Z,88.25
2024-04-12T20:03:01.737Z,88.22
2024-04-12T20:05:31.256Z,89.70
2024-04-12T20:08:00.728Z,90.22
2024-04-12T20:10:30.258Z,90.70
2024-04-12T20:13:02.382Z,91.30
2024-04-12T20:15:32.754Z,92.42
2024-04-12T20:18:02.661Z,93.94
2024-04-12T20:20:32.290Z,94.47
2024-04-12T20:23:03.802Z,93.21
2024-04-12T20:25:33.574Z,94.07
2024-04-12T20:28:05.816Z,94.84
2024-04-12T20:30:48.082Z,94.89
2024-04-12T20:33:24.376Z,96.96
2024-04-12T20:36:08.813Z,96.79
2024-04-12T20:38:38.365Z,96.38
2024-04-12T20:41:07.813Z,98.14
2024-04-12T20:43:40.021Z,99.14
2024-04-12T20:46:09.530Z,99.36
2024-04-12T20:48:40.035Z,99.72
2024-04-12T20:51:09.658Z,99.03
2024-04-12T20:53:39.132Z,99.19
2024-04-12T20:56:10.955Z,100.00
2024-04-12T20:58:43.187Z,100.00
2024-04-12T21:01:12.766Z,100.00
2024-04-12T21:03:42.322Z,100.00
2024-04-12T21:06:11.878Z,100.00
2024-04-12T21:08:41.704Z,100.00
2024-04-12T21:11:18.641Z,100.00
2024-04-12T21:13:54.875Z,100.00
2024-04-12T21:16:24.568Z,100.00
2024-04-12T21:18:55.821Z,100.00
2024-04-12T21:21:25.536Z,100.00
2024-04-12T21:23:55.215Z,100.00
2024-04-12T21:26:26.006Z,100.00
2024-04-12T21:28:58.229Z,100.00
2024-04-12T21:31:27.730Z,100.00
2024-04-12T21:33:57.264Z,100.00
2024-04-12T21:36:27.100Z,100.00
2024-04-12T21:38:59.644Z,100.00
2024-04-12T21:41:29.416Z,100.00
2024-04-12T21:44:01.572Z,100.00
2024-04-12T21:46:31.109Z,100.00
2024-04-12T21:49:00.646Z,100.00
2024-04-12T21:51:31.431Z,100.00
2024-04-12T21:54:01.732Z,100.00
2024-04-12T21:56:31.429Z,100.00
2024-04-12T21:59:03.676Z,100.00
2024-04-12T22:01:33.409Z,100.00
2024-04-12T22:04:05.638Z,100.00
2024-04-12T22:06:35.336Z,100.00
2024-04-12T22:09:06.481Z,100.00
2024-04-12T22:11:36.064Z,100.00
2024-04-12T22:14:08.264Z,100.00
2024-04-12T22:16:37.896Z,100.00
2024-04-12T22:19:07.884Z,100.00
2024-04-12T22:21:37.463Z,100.00
2024-04-12T22:24:08.046Z,100.00
2024-04-12T22:26:37.702Z,100.00
2024-04-12T22:29:09.798Z,100.00
2024-04-12T22:31:39.389Z,100.00
2024-04-12T22:34:09.106Z,100.00
2024-04-12T22:36:38.716Z,100.00
2024-04-12T22:39:08.239Z,100.00
2024-04-12T22:41:37.810Z,100.00
2024-04-12T22:44:10.200Z,100.00
2024-04-12T22:46:40.086Z,100.00
2024-04-12T22:49:09.760Z,100.00
2024-04-12T22:51:39.271Z,100.00
2024-04-12T22:54:08.804Z,100.00
2024-04-12T22:56:38.653Z,100.00
2024-04-12T22:59:10.823Z,100.00
2024-04-12T23:01:40.284Z,100.00
2024-04-12T23:04:10.465Z,100.00
2024-04-12T23:06:41.908Z,100.00
2024-04-12T23:09:11.488Z,100.00
2024-04-12T23:11:41.004Z,100.00
2024-04-12T23:14:13.096Z,100.00
2024-04-12T23:16:43.710Z,100.00
2024-04-12T23:19:14.554Z,100.00
2024-04-12T23:21:43.972Z,100.00
2024-04-12T23:24:13.427Z,100.00
2024-04-12T23:26:42.879Z,100.00
2024-04-12T23:29:14.967Z,100.00
2024-04-12T23:31:44.460Z,100.00
2024-04-12T23:34:14.019Z,100.00
2024-04-12T23:36:43.461Z,100.00
2024-04-12T23:39:15.131Z,100.00
2024-04-12T23:41:44.640Z,100.00
2024-04-12T23:44:16.996Z,100.00
2024-04-12T23:46:46.414Z,100.00
2024-04-12T23:49:15.884Z,100.00
2024-04-12T23:51:45.358Z,100.00
2024-04-12T23:54:16.796Z,100.00
2024-04-12T23:56:46.318Z,100.00
2024-04-12T23:59:18.523Z,100.00
